Wilson Cadiz — 8PSY — position and weather

sailwx.info

Track history (hours):
 
Tides and Currents Weather Stations Pressure Air Temp Water Temp Dewpoint Dewpoint Depression Visibility Wind Speed Wind Dir Waves Ship Positions

Wilson Cadiz

Last reported at 2017-Jan-19 04:33 UTC. Time now 2017-Jan-19 06:40 UTC.
Position N 39°15' W 009°50'.

Length 100 m; draft 5.7 m.

Type: Ship. MMSI: 314216000.

Date/timePositionNaut miles runAvg speedWind from/ knotsBaromVisibWave heightAir tempDewpointWater temp
2017-Jan-19 04:33N 39°15' W 009°50'1010.5
2017-Jan-19 03:33N 39°04' W 009°50'1010.1
2017-Jan-19 02:33N 38°54' W 009°50'1010.1
2017-Jan-19 01:33N 38°44' W 009°50'10 9.8
2017-Jan-19 00:33N 38°34' W 009°48'10 9.9
2017-Jan-18 23:33N 38°25' W 009°45'1010.0
2017-Jan-18 22:33N 38°15' W 009°42'30 9.9
2017-Jan-18 19:32N 37°46' W 009°33'219 8.8
2017-Jan-17 18:33N 35°58' W 005°35'8 8.3
2017-Jan-17 17:33N 36°01' W 005°25'8 7.9
2017-Jan-17 16:33N 36°09' W 005°22'0 0.0
2017-Jan-17 09:33N 36°09' W 005°22'4 3.9
2017-Jan-17 08:33N 36°05' W 005°19'  
2017-Jan-14 12:30N 37°17' W 001°28'2110.6
2017-Jan-14 10:32N 37°24' W 001°03'1111.1
2017-Jan-14 09:33N 37°28' W 000°50'1110.9
2017-Jan-14 08:33N 37°32' W 000°38'1010.5
2017-Jan-14 07:33N 37°40' W 000°28'1111.0
2017-Jan-14 06:33N 37°49' W 000°21'1110.8
2017-Jan-14 05:33N 37°58' W 000°13'13710.5
2017-Jan-13 16:33N 39°60' E 001°07'10 9.8
2017-Jan-13 15:33N 40°08' E 001°13'1010.4
2017-Jan-13 14:33N 40°18' E 001°18'10 9.7
2017-Jan-13 13:33N 40°26' E 001°25'9 8.8
2017-Jan-13 12:33N 40°33' E 001°32'9 8.5
2017-Jan-13 11:33N 40°40' E 001°39'7 6.7
2017-Jan-13 10:33N 40°46' E 001°44'7 6.6
2017-Jan-13 09:33N 40°51' E 001°49'7 6.9
2017-Jan-13 08:33N 40°56' E 001°55'8 7.6
2017-Jan-13 07:33N 41°01' E 002°02'8 7.7
2017-Jan-13 06:32N 41°07' E 002°10'7 7.6
2017-Jan-13 05:33N 41°12' E 002°17'10 9.3
2017-Jan-13 04:31N 41°18' E 002°27'11 9.8
2017-Jan-13 03:27N 41°25' E 002°38'12910.7
2017-Jan-12 15:23N 43°24' E 003°45'1 0.6
2017-Jan-12 13:18N 43°24' E 003°43'  
Track history (hours):
 
Tides and Currents Weather Stations Pressure Air Temp Water Temp Dewpoint Dewpoint Depression Visibility Wind Speed Wind Dir Waves Ship Positions

Wilson Cadiz

Last reported at 2017-Jan-19 04:33 UTC. Time now 2017-Jan-19 06:40 UTC.
Position N 39°15' W 009°50'.

Length 100 m; draft 5.7 m.

Type: Ship. MMSI: 314216000.

Date/timePositionNaut miles runAvg speedWind from/ knotsBaromVisibWave heightAir tempDewpointWater temp
2017-Jan-19 04:33N 39°15' W 009°50'1010.5
2017-Jan-19 03:33N 39°04' W 009°50'1010.1
2017-Jan-19 02:33N 38°54' W 009°50'1010.1
2017-Jan-19 01:33N 38°44' W 009°50'10 9.8
2017-Jan-19 00:33N 38°34' W 009°48'10 9.9
2017-Jan-18 23:33N 38°25' W 009°45'1010.0
2017-Jan-18 22:33N 38°15' W 009°42'30 9.9
2017-Jan-18 19:32N 37°46' W 009°33'219 8.8
2017-Jan-17 18:33N 35°58' W 005°35'8 8.3
2017-Jan-17 17:33N 36°01' W 005°25'8 7.9
2017-Jan-17 16:33N 36°09' W 005°22'0 0.0
2017-Jan-17 09:33N 36°09' W 005°22'4 3.9
2017-Jan-17 08:33N 36°05' W 005°19'  
2017-Jan-14 12:30N 37°17' W 001°28'2110.6
2017-Jan-14 10:32N 37°24' W 001°03'1111.1
2017-Jan-14 09:33N 37°28' W 000°50'1110.9
2017-Jan-14 08:33N 37°32' W 000°38'1010.5
2017-Jan-14 07:33N 37°40' W 000°28'1111.0
2017-Jan-14 06:33N 37°49' W 000°21'1110.8
2017-Jan-14 05:33N 37°58' W 000°13'13710.5
2017-Jan-13 16:33N 39°60' E 001°07'10 9.8
2017-Jan-13 15:33N 40°08' E 001°13'1010.4
2017-Jan-13 14:33N 40°18' E 001°18'10 9.7
2017-Jan-13 13:33N 40°26' E 001°25'9 8.8
2017-Jan-13 12:33N 40°33' E 001°32'9 8.5
2017-Jan-13 11:33N 40°40' E 001°39'7 6.7
2017-Jan-13 10:33N 40°46' E 001°44'7 6.6
2017-Jan-13 09:33N 40°51' E 001°49'7 6.9
2017-Jan-13 08:33N 40°56' E 001°55'8 7.6
2017-Jan-13 07:33N 41°01' E 002°02'8 7.7
2017-Jan-13 06:32N 41°07' E 002°10'7 7.6
2017-Jan-13 05:33N 41°12' E 002°17'10 9.3
2017-Jan-13 04:31N 41°18' E 002°27'11 9.8
2017-Jan-13 03:27N 41°25' E 002°38'12910.7
2017-Jan-12 15:23N 43°24' E 003°45'1 0.6
2017-Jan-12 13:18N 43°24' E 003°43'  

Dump ship's entire track history